sensor_id;sensor_type;location;lat;lon;timestamp;pressure;altitude;pressure_sealevel;temperature;humidity
64023;BME280;50264;52.088;5.296;2022-08-02T00:00:04;101886.0;;;13.94;79.89
64023;BME280;50264;52.088;5.296;2022-08-02T00:01:51;101884.0;;;13.91;79.97
64023;BME280;50264;52.088;5.296;2022-08-02T00:03:38;101884.0;;;13.93;80.28
64023;BME280;50264;52.088;5.296;2022-08-02T00:07:12;101876.0;;;13.97;79.74
64023;BME280;50264;52.088;5.296;2022-08-02T00:08:59;101880.0;;;13.95;79.41
64023;BME280;50264;52.088;5.296;2022-08-02T00:10:48;101880.0;;;14.09;79.39
64023;BME280;50264;52.088;5.296;2022-08-02T00:12:34;101876.0;;;14.12;79.16
64023;BME280;50264;52.088;5.296;2022-08-02T00:14:21;101877.0;;;14.1;79.61
64023;BME280;50264;52.088;5.296;2022-08-02T00:16:07;101877.0;;;14.07;79.49
64023;BME280;50264;52.088;5.296;2022-08-02T00:19:42;101881.0;;;13.95;79.19
64023;BME280;50264;52.088;5.296;2022-08-02T00:21:30;101877.0;;;13.96;78.91
64023;BME280;50264;52.088;5.296;2022-08-02T00:23:17;101874.0;;;13.93;79.39
64023;BME280;50264;52.088;5.296;2022-08-02T00:25:05;101870.0;;;13.86;80.49
64023;BME280;50264;52.088;5.296;2022-08-02T00:26:52;101868.0;;;13.89;79.74
64023;BME280;50264;52.088;5.296;2022-08-02T00:28:39;101865.0;;;13.81;79.48
64023;BME280;50264;52.088;5.296;2022-08-02T00:32:11;101861.0;;;13.83;80.37
64023;BME280;50264;52.088;5.296;2022-08-02T00:33:57;101862.0;;;13.83;80.41
64023;BME280;50264;52.088;5.296;2022-08-02T00:35:46;101858.0;;;13.86;79.56
64023;BME280;50264;52.088;5.296;2022-08-02T00:37:37;101853.0;;;13.79;79.52
64023;BME280;50264;52.088;5.296;2022-08-02T00:39:24;101855.0;;;13.78;80.11
64023;BME280;50264;52.088;5.296;2022-08-02T00:43:00;101853.0;;;13.71;79.62
64023;BME280;50264;52.088;5.296;2022-08-02T00:44:47;101848.0;;;13.7;80.36
64023;BME280;50264;52.088;5.296;2022-08-02T00:46:33;101851.0;;;13.68;79.92
64023;BME280;50264;52.088;5.296;2022-08-02T00:48:19;101849.0;;;13.73;79.95
64023;BME280;50264;52.088;5.296;2022-08-02T00:50:06;101846.0;;;13.86;79.83
64023;BME280;50264;52.088;5.296;2022-08-02T00:51:53;101845.0;;;13.83;79.97
64023;BME280;50264;52.088;5.296;2022-08-02T00:55:26;101847.0;;;13.89;79.59
64023;BME280;50264;52.088;5.296;2022-08-02T00:57:12;101849.0;;;13.72;79.3
64023;BME280;50264;52.088;5.296;2022-08-02T00:58:59;101845.0;;;13.71;80.31
64023;BME280;50264;52.088;5.296;2022-08-02T01:00:46;101844.0;;;13.74;79.98
64023;BME280;50264;52.088;5.296;2022-08-02T01:02:33;101848.0;;;13.75;79.72
64023;BME280;50264;52.088;5.296;2022-08-02T01:04:19;101842.0;;;13.79;79.94
64023;BME280;50264;52.088;5.296;2022-08-02T01:07:52;101839.0;;;13.9;78.47
64023;BME280;50264;52.088;5.296;2022-08-02T01:09:39;101837.0;;;13.99;77.91
64023;BME280;50264;52.088;5.296;2022-08-02T01:11:26;101840.0;;;14.05;78.41
64023;BME280;50264;52.088;5.296;2022-08-02T01:13:13;101841.0;;;14.11;78.31
64023;BME280;50264;52.088;5.296;2022-08-02T01:15:03;101831.0;;;14.07;78.66
64023;BME280;50264;52.088;5.296;2022-08-02T01:16:57;101825.0;;;14.05;78.61
64023;BME280;50264;52.088;5.296;2022-08-02T01:21:00;101823.0;;;13.94;79.3
64023;BME280;50264;52.088;5.296;2022-08-02T01:23:32;101822.0;;;14.04;79.12
64023;BME280;50264;52.088;5.296;2022-08-02T01:25:36;101816.0;;;13.97;79.49
64023;BME280;50264;52.088;5.296;2022-08-02T01:27:39;101810.0;;;13.97;79.11
64023;BME280;50264;52.088;5.296;2022-08-02T01:29:33;101811.0;;;13.86;79.41
64023;BME280;50264;52.088;5.296;2022-08-02T01:33:22;101807.0;;;13.86;79.59
64023;BME280;50264;52.088;5.296;2022-08-02T01:35:15;101808.0;;;13.9;79.39
64023;BME280;50264;52.088;5.296;2022-08-02T01:37:09;101811.0;;;13.93;79.55
64023;BME280;50264;52.088;5.296;2022-08-02T01:38:58;101809.0;;;13.94;80.22
64023;BME280;50264;52.088;5.296;2022-08-02T01:40:48;101808.0;;;13.78;79.92
64023;BME280;50264;52.088;5.296;2022-08-02T01:42:40;101808.0;;;13.87;80.19
64023;BME280;50264;52.088;5.296;2022-08-02T01:44:33;101808.0;;;14.08;80.05
64023;BME280;50264;52.088;5.296;2022-08-02T01:46:23;101807.0;;;14.02;79.97
64023;BME280;50264;52.088;5.296;2022-08-02T01:48:13;101807.0;;;13.85;80.13
64023;BME280;50264;52.088;5.296;2022-08-02T01:52:26;101815.0;;;13.79;79.99
64023;BME280;50264;52.088;5.296;2022-08-02T01:54:18;101812.0;;;13.82;80.16
64023;BME280;50264;52.088;5.296;2022-08-02T01:56:08;101812.0;;;13.96;79.92
64023;BME280;50264;52.088;5.296;2022-08-02T01:58:00;101806.0;;;14.08;80.61
64023;BME280;50264;52.088;5.296;2022-08-02T01:59:49;101813.0;;;14.04;80.13
64023;BME280;50264;52.088;5.296;2022-08-02T02:01:37;101807.0;;;14.12;80.64
64023;BME280;50264;52.088;5.296;2022-08-02T02:03:26;101802.0;;;14.23;79.39
64023;BME280;50264;52.088;5.296;2022-08-02T02:05:15;101803.0;;;14.18;79.33
64023;BME280;50264;52.088;5.296;2022-08-02T02:07:08;101810.0;;;14.15;79.86
64023;BME280;50264;52.088;5.296;2022-08-02T02:10:45;101805.0;;;14.29;79.25
64023;BME280;50264;52.088;5.296;2022-08-02T02:12:32;101802.0;;;14.21;80.12
64023;BME280;50264;52.088;5.296;2022-08-02T02:14:23;101798.0;;;14.22;79.94
64023;BME280;50264;52.088;5.296;2022-08-02T02:16:11;101797.0;;;14.2;79.61
64023;BME280;50264;52.088;5.296;2022-08-02T02:18:01;101793.0;;;14.21;80.66
64023;BME280;50264;52.088;5.296;2022-08-02T02:19:49;101794.0;;;14.16;80.23
64023;BME280;50264;52.088;5.296;2022-08-02T02:21:38;101788.0;;;14.11;80.98
64023;BME280;50264;52.088;5.296;2022-08-02T02:25:12;101788.0;;;14.18;80.22
64023;BME280;50264;52.088;5.296;2022-08-02T02:27:02;101788.0;;;14.12;80.95
64023;BME280;50264;52.088;5.296;2022-08-02T02:28:52;101785.0;;;14.16;80.84
64023;BME280;50264;52.088;5.296;2022-08-02T02:30:46;101781.0;;;14.19;81.16
64023;BME280;50264;52.088;5.296;2022-08-02T02:32:34;101785.0;;;14.13;81.2
64023;BME280;50264;52.088;5.296;2022-08-02T02:34:25;101788.0;;;14.09;81.19
64023;BME280;50264;52.088;5.296;2022-08-02T02:38:11;101786.0;;;14.09;81.44
64023;BME280;50264;52.088;5.296;2022-08-02T02:40:04;101785.0;;;14.17;81.05
64023;BME280;50264;52.088;5.296;2022-08-02T02:41:52;101780.0;;;14.11;81.41
64023;BME280;50264;52.088;5.296;2022-08-02T02:43:42;101775.0;;;14.09;81.75
64023;BME280;50264;52.088;5.296;2022-08-02T02:45:30;101774.0;;;14.18;81.72
64023;BME280;50264;52.088;5.296;2022-08-02T02:47:19;101773.0;;;14.11;81.72
64023;BME280;50264;52.088;5.296;2022-08-02T02:49:07;101770.0;;;14.18;81.67
64023;BME280;50264;52.088;5.296;2022-08-02T02:50:56;101768.0;;;14.17;81.69
64023;BME280;50264;52.088;5.296;2022-08-02T02:54:35;101763.0;;;14.19;81.8
64023;BME280;50264;52.088;5.296;2022-08-02T02:56:22;101758.0;;;14.26;81.33
64023;BME280;50264;52.088;5.296;2022-08-02T02:58:11;101766.0;;;14.28;81.69
64023;BME280;50264;52.088;5.296;2022-08-02T02:59:59;101765.0;;;14.22;81.78
64023;BME280;50264;52.088;5.296;2022-08-02T03:01:46;101770.0;;;14.21;81.72
64023;BME280;50264;52.088;5.296;2022-08-02T03:03:33;101770.0;;;14.24;81.42
64023;BME280;50264;52.088;5.296;2022-08-02T03:07:06;101771.0;;;14.26;82.06
64023;BME280;50264;52.088;5.296;2022-08-02T03:08:53;101772.0;;;14.28;81.84
64023;BME280;50264;52.088;5.296;2022-08-02T03:10:41;101771.0;;;14.33;82.16
64023;BME280;50264;52.088;5.296;2022-08-02T03:12:30;101770.0;;;14.3;82.18
64023;BME280;50264;52.088;5.296;2022-08-02T03:14:19;101766.0;;;14.41;81.86
64023;BME280;50264;52.088;5.296;2022-08-02T03:16:06;101769.0;;;14.41;81.75
64023;BME280;50264;52.088;5.296;2022-08-02T03:19:39;101766.0;;;14.57;82.34
64023;BME280;50264;52.088;5.296;2022-08-02T03:21:25;101759.0;;;14.6;81.97
64023;BME280;50264;52.088;5.296;2022-08-02T03:23:12;101755.0;;;14.57;81.69
64023;BME280;50264;52.088;5.296;2022-08-02T03:24:58;101757.0;;;14.59;81.86
64023;BME280;50264;52.088;5.296;2022-08-02T03:26:44;101764.0;;;14.59;81.69
64023;BME280;50264;52.088;5.296;2022-08-02T03:30:18;101760.0;;;14.68;81.48
64023;BME280;50264;52.088;5.296;2022-08-02T03:32:05;101757.0;;;14.67;81.05
64023;BME280;50264;52.088;5.296;2022-08-02T03:33:53;101749.0;;;14.73;81.36
64023;BME280;50264;52.088;5.296;2022-08-02T03:35:41;101744.0;;;14.84;80.73
64023;BME280;50264;52.088;5.296;2022-08-02T03:37:29;101743.0;;;14.89;80.78
64023;BME280;50264;52.088;5.296;2022-08-02T03:39:18;101740.0;;;14.8;80.52
64023;BME280;50264;52.088;5.296;2022-08-02T03:42:54;101737.0;;;14.79;80.66
64023;BME280;50264;52.088;5.296;2022-08-02T03:44:41;101728.0;;;14.77;80.36
64023;BME280;50264;52.088;5.296;2022-08-02T03:46:29;101725.0;;;14.75;81.33
64023;BME280;50264;52.088;5.296;2022-08-02T03:48:17;101725.0;;;14.8;80.99
64023;BME280;50264;52.088;5.296;2022-08-02T03:50:06;101724.0;;;14.81;81.19
64023;BME280;50264;52.088;5.296;2022-08-02T03:51:54;101722.0;;;14.93;80.87
64023;BME280;50264;52.088;5.296;2022-08-02T03:53:42;101721.0;;;14.84;80.53
64023;BME280;50264;52.088;5.296;2022-08-02T03:57:16;101725.0;;;14.91;80.98
64023;BME280;50264;52.088;5.296;2022-08-02T03:59:05;101727.0;;;14.88;80.37
64023;BME280;50264;52.088;5.296;2022-08-02T04:00:56;101733.0;;;14.89;80.97
64023;BME280;50264;52.088;5.296;2022-08-02T04:02:44;101732.0;;;14.94;80.52
64023;BME280;50264;52.088;5.296;2022-08-02T04:04:30;101730.0;;;14.91;80.62
64023;BME280;50264;52.088;5.296;2022-08-02T04:06:16;101732.0;;;14.89;80.48
64023;BME280;50264;52.088;5.296;2022-08-02T04:09:48;101735.0;;;14.9;80.44
64023;BME280;50264;52.088;5.296;2022-08-02T04:11:34;101733.0;;;14.82;80.77
64023;BME280;50264;52.088;5.296;2022-08-02T04:13:22;101731.0;;;14.87;80.86
64023;BME280;50264;52.088;5.296;2022-08-02T04:15:11;101726.0;;;14.83;79.25
64023;BME280;50264;52.088;5.296;2022-08-02T04:17:02;101730.0;;;14.93;79.95
64023;BME280;50264;52.088;5.296;2022-08-02T04:19:00;101733.0;;;14.99;80.16
64023;BME280;50264;52.088;5.296;2022-08-02T04:22:39;101731.0;;;14.92;80.37
64023;BME280;50264;52.088;5.296;2022-08-02T04:24:36;101735.0;;;14.89;80.33
64023;BME280;50264;52.088;5.296;2022-08-02T04:26:26;101725.0;;;14.92;80.49
64023;BME280;50264;52.088;5.296;2022-08-02T04:28:15;101730.0;;;14.91;80.39
64023;BME280;50264;52.088;5.296;2022-08-02T04:30:03;101727.0;;;14.84;80.33
64023;BME280;50264;52.088;5.296;2022-08-02T04:31:51;101728.0;;;14.84;79.86
64023;BME280;50264;52.088;5.296;2022-08-02T04:33:38;101732.0;;;14.81;79.69
64023;BME280;50264;52.088;5.296;2022-08-02T04:37:12;101735.0;;;14.82;81.59
64023;BME280;50264;52.088;5.296;2022-08-02T04:38:59;101738.0;;;14.86;80.47
64023;BME280;50264;52.088;5.296;2022-08-02T04:40:50;101734.0;;;14.81;80.13
64023;BME280;50264;52.088;5.296;2022-08-02T04:42:38;101727.0;;;14.85;80.38
64023;BME280;50264;52.088;5.296;2022-08-02T04:44:25;101726.0;;;14.81;80.37
64023;BME280;50264;52.088;5.296;2022-08-02T04:46:11;101723.0;;;14.84;80.36
64023;BME280;50264;52.088;5.296;2022-08-02T04:49:45;101722.0;;;14.79;80.42
64023;BME280;50264;52.088;5.296;2022-08-02T04:51:33;101722.0;;;14.81;80.17
64023;BME280;50264;52.088;5.296;2022-08-02T04:53:20;101721.0;;;14.87;80.49
64023;BME280;50264;52.088;5.296;2022-08-02T04:55:08;101721.0;;;14.83;80.78
64023;BME280;50264;52.088;5.296;2022-08-02T04:56:54;101724.0;;;14.83;79.66
64023;BME280;50264;52.088;5.296;2022-08-02T04:58:40;101727.0;;;14.88;80.72
64023;BME280;50264;52.088;5.296;2022-08-02T05:02:15;101721.0;;;14.82;80.47
64023;BME280;50264;52.088;5.296;2022-08-02T05:04:02;101713.0;;;14.78;80.27
64023;BME280;50264;52.088;5.296;2022-08-02T05:05:49;101709.0;;;14.85;80.73
64023;BME280;50264;52.088;5.296;2022-08-02T05:07:35;101709.0;;;14.85;80.75
64023;BME280;50264;52.088;5.296;2022-08-02T05:09:21;101707.0;;;14.87;79.8
64023;BME280;50264;52.088;5.296;2022-08-02T05:11:08;101699.0;;;14.89;81.11
64023;BME280;50264;52.088;5.296;2022-08-02T05:14:40;101699.0;;;14.9;81.22
64023;BME280;50264;52.088;5.296;2022-08-02T05:16:27;101700.0;;;14.89;80.8
64023;BME280;50264;52.088;5.296;2022-08-02T05:18:13;101694.0;;;14.95;80.72
64023;BME280;50264;52.088;5.296;2022-08-02T05:19:59;101691.0;;;15.07;80.55
64023;BME280;50264;52.088;5.296;2022-08-02T05:21:46;101697.0;;;15.1;79.59
64023;BME280;50264;52.088;5.296;2022-08-02T05:25:19;101699.0;;;15.11;80.33
64023;BME280;50264;52.088;5.296;2022-08-02T05:27:05;101696.0;;;15.27;78.22
64023;BME280;50264;52.088;5.296;2022-08-02T05:28:51;101696.0;;;15.28;76.41
64023;BME280;50264;52.088;5.296;2022-08-02T05:30:37;101698.0;;;15.36;78.74
64023;BME280;50264;52.088;5.296;2022-08-02T05:32:25;101701.0;;;15.38;79.08
64023;BME280;50264;52.088;5.296;2022-08-02T05:34:12;101703.0;;;15.45;77.45
64023;BME280;50264;52.088;5.296;2022-08-02T05:37:44;101715.0;;;15.5;79.06
64023;BME280;50264;52.088;5.296;2022-08-02T05:39:31;101714.0;;;15.53;78.52
64023;BME280;50264;52.088;5.296;2022-08-02T05:41:19;101719.0;;;15.63;77.73
64023;BME280;50264;52.088;5.296;2022-08-02T05:43:10;101724.0;;;15.73;77.83
64023;BME280;50264;52.088;5.296;2022-08-02T05:44:57;101722.0;;;15.78;76.8
64023;BME280;50264;52.088;5.296;2022-08-02T05:46:44;101719.0;;;15.88;76.13
64023;BME280;50264;52.088;5.296;2022-08-02T05:50:18;101718.0;;;16.07;73.66
64023;BME280;50264;52.088;5.296;2022-08-02T05:52:12;101721.0;;;15.95;77.44
64023;BME280;50264;52.088;5.296;2022-08-02T05:54:07;101721.0;;;16.02;76.84
64023;BME280;50264;52.088;5.296;2022-08-02T05:56:02;101717.0;;;16.11;74.94
64023;BME280;50264;52.088;5.296;2022-08-02T05:58:01;101717.0;;;16.2;74.94
64023;BME280;50264;52.088;5.296;2022-08-02T05:59:59;101715.0;;;16.3;73.27
64023;BME280;50264;52.088;5.296;2022-08-02T06:01:51;101716.0;;;16.47;72.88
64023;BME280;50264;52.088;5.296;2022-08-02T06:03:48;101717.0;;;16.46;75.58
64023;BME280;50264;52.088;5.296;2022-08-02T06:05:39;101713.0;;;16.45;75.47
64023;BME280;50264;52.088;5.296;2022-08-02T06:09:16;101710.0;;;16.43;75.61
64023;BME280;50264;52.088;5.296;2022-08-02T06:11:05;101708.0;;;16.5;75.19
64023;BME280;50264;52.088;5.296;2022-08-02T06:12:58;101705.0;;;16.47;76.33
64023;BME280;50264;52.088;5.296;2022-08-02T06:14:51;101705.0;;;16.52;76.61
64023;BME280;50264;52.088;5.296;2022-08-02T06:16:39;101705.0;;;16.55;76.52
64023;BME280;50264;52.088;5.296;2022-08-02T06:18:30;101707.0;;;16.57;77.0
64023;BME280;50264;52.088;5.296;2022-08-02T06:20:19;101706.0;;;16.59;76.84
64023;BME280;50264;52.088;5.296;2022-08-02T06:24:02;101695.0;;;16.62;76.59
64023;BME280;50264;52.088;5.296;2022-08-02T06:25:49;101690.0;;;16.73;75.62
64023;BME280;50264;52.088;5.296;2022-08-02T06:27:39;101696.0;;;16.75;76.19
64023;BME280;50264;52.088;5.296;2022-08-02T06:29:28;101701.0;;;16.84;76.3
64023;BME280;50264;52.088;5.296;2022-08-02T06:31:16;101701.0;;;16.9;75.88
64023;BME280;50264;52.088;5.296;2022-08-02T06:33:03;101707.0;;;16.95;76.22
64023;BME280;50264;52.088;5.296;2022-08-02T06:34:49;101710.0;;;17.02;75.03
64023;BME280;50264;52.088;5.296;2022-08-02T06:38:35;101715.0;;;17.11;74.67
64023;BME280;50264;52.088;5.296;2022-08-02T06:40:29;101708.0;;;17.25;73.49
64023;BME280;50264;52.088;5.296;2022-08-02T06:42:20;101705.0;;;17.34;72.41
64023;BME280;50264;52.088;5.296;2022-08-02T06:44:16;101705.0;;;17.45;72.63
64023;BME280;50264;52.088;5.296;2022-08-02T06:46:03;101700.0;;;17.61;72.03
64023;BME280;50264;52.088;5.296;2022-08-02T06:47:50;101694.0;;;17.7;73.08
64023;BME280;50264;52.088;5.296;2022-08-02T06:49:36;101681.0;;;17.84;71.34
64023;BME280;50264;52.088;5.296;2022-08-02T06:53:10;101678.0;;;17.82;75.05
64023;BME280;50264;52.088;5.296;2022-08-02T06:54:57;101678.0;;;17.88;74.55
64023;BME280;50264;52.088;5.296;2022-08-02T06:56:45;101680.0;;;18.05;73.55
64023;BME280;50264;52.088;5.296;2022-08-02T06:58:32;101678.0;;;18.04;72.45
64023;BME280;50264;52.088;5.296;2022-08-02T07:00:18;101674.0;;;18.28;71.36
64023;BME280;50264;52.088;5.296;2022-08-02T07:02:04;101668.0;;;18.37;72.8
64023;BME280;50264;52.088;5.296;2022-08-02T07:05:36;101667.0;;;18.55;71.64
64023;BME280;50264;52.088;5.296;2022-08-02T07:07:24;101666.0;;;18.64;70.66
64023;BME280;50264;52.088;5.296;2022-08-02T07:09:11;101665.0;;;18.79;71.42
64023;BME280;50264;52.088;5.296;2022-08-02T07:10:58;101660.0;;;18.95;71.87
64023;BME280;50264;52.088;5.296;2022-08-02T07:12:44;101667.0;;;18.97;72.53
64023;BME280;50264;52.088;5.296;2022-08-02T07:14:30;101669.0;;;19.03;70.73
64023;BME280;50264;52.088;5.296;2022-08-02T07:18:03;101672.0;;;19.25;71.36
64023;BME280;50264;52.088;5.296;2022-08-02T07:19:50;101668.0;;;19.28;69.7
64023;BME280;50264;52.088;5.296;2022-08-02T07:21:36;101671.0;;;19.37;69.84
64023;BME280;50264;52.088;5.296;2022-08-02T07:23:22;101672.0;;;19.48;69.49
64023;BME280;50264;52.088;5.296;2022-08-02T07:25:09;101671.0;;;19.48;68.27
64023;BME280;50264;52.088;5.296;2022-08-02T07:28:42;101669.0;;;19.59;68.05
64023;BME280;50264;52.088;5.296;2022-08-02T07:30:29;101674.0;;;19.61;67.52
64023;BME280;50264;52.088;5.296;2022-08-02T07:32:18;101675.0;;;19.77;67.56
64023;BME280;50264;52.088;5.296;2022-08-02T07:34:06;101670.0;;;19.81;67.8
64023;BME280;50264;52.088;5.296;2022-08-02T07:35:53;101671.0;;;19.8;66.88
64023;BME280;50264;52.088;5.296;2022-08-02T07:37:42;101668.0;;;19.91;67.52
64023;BME280;50264;52.088;5.296;2022-08-02T07:41:15;101664.0;;;19.93;67.13
64023;BME280;50264;52.088;5.296;2022-08-02T07:43:02;101658.0;;;19.95;67.16
64023;BME280;50264;52.088;5.296;2022-08-02T07:44:48;101655.0;;;20.12;67.97
64023;BME280;50264;52.088;5.296;2022-08-02T07:46:35;101651.0;;;20.27;68.23
64023;BME280;50264;52.088;5.296;2022-08-02T07:48:21;101648.0;;;20.2;67.78
64023;BME280;50264;52.088;5.296;2022-08-02T07:50:08;101650.0;;;20.37;68.39
64023;BME280;50264;52.088;5.296;2022-08-02T07:53:42;101647.0;;;20.45;68.1
64023;BME280;50264;52.088;5.296;2022-08-02T07:55:29;101647.0;;;20.58;67.59
64023;BME280;50264;52.088;5.296;2022-08-02T07:57:15;101645.0;;;20.65;68.7
64023;BME280;50264;52.088;5.296;2022-08-02T07:59:02;101643.0;;;20.78;68.56
64023;BME280;50264;52.088;5.296;2022-08-02T08:00:49;101641.0;;;20.8;67.75
64023;BME280;50264;52.088;5.296;2022-08-02T08:04:22;101638.0;;;20.96;68.44
64023;BME280;50264;52.088;5.296;2022-08-02T08:06:09;101645.0;;;20.96;67.69
64023;BME280;50264;52.088;5.296;2022-08-02T08:07:56;101645.0;;;20.99;67.35
64023;BME280;50264;52.088;5.296;2022-08-02T08:09:43;101644.0;;;20.99;66.94
64023;BME280;50264;52.088;5.296;2022-08-02T08:11:29;101639.0;;;21.11;67.19
64023;BME280;50264;52.088;5.296;2022-08-02T08:13:15;101647.0;;;21.12;68.24
64023;BME280;50264;52.088;5.296;2022-08-02T08:16:50;101640.0;;;21.18;66.83
64023;BME280;50264;52.088;5.296;2022-08-02T08:18:37;101646.0;;;21.24;66.6
64023;BME280;50264;52.088;5.296;2022-08-02T08:20:24;101650.0;;;21.31;66.89
64023;BME280;50264;52.088;5.296;2022-08-02T08:22:10;101649.0;;;21.38;66.88
64023;BME280;50264;52.088;5.296;2022-08-02T08:23:56;101650.0;;;21.32;65.81
64023;BME280;50264;52.088;5.296;2022-08-02T08:25:43;101651.0;;;21.41;66.34
64023;BME280;50264;52.088;5.296;2022-08-02T08:29:17;101648.0;;;21.54;65.37
64023;BME280;50264;52.088;5.296;2022-08-02T08:31:04;101640.0;;;21.58;66.06
64023;BME280;50264;52.088;5.296;2022-08-02T08:32:50;101640.0;;;21.44;66.16
64023;BME280;50264;52.088;5.296;2022-08-02T08:34:36;101640.0;;;21.55;65.22
64023;BME280;50264;52.088;5.296;2022-08-02T08:36:22;101636.0;;;21.66;65.52
64023;BME280;50264;52.088;5.296;2022-08-02T08:39:55;101639.0;;;21.76;65.05
64023;BME280;50264;52.088;5.296;2022-08-02T08:41:42;101633.0;;;21.71;65.02
64023;BME280;50264;52.088;5.296;2022-08-02T08:43:29;101642.0;;;21.9;64.06
64023;BME280;50264;52.088;5.296;2022-08-02T08:45:17;101636.0;;;22.0;65.05
64023;BME280;50264;52.088;5.296;2022-08-02T08:47:04;101638.0;;;21.87;64.25
64023;BME280;50264;52.088;5.296;2022-08-02T08:48:52;101636.0;;;21.85;63.86
64023;BME280;50264;52.088;5.296;2022-08-02T08:52:39;101640.0;;;22.05;63.77
64023;BME280;50264;52.088;5.296;2022-08-02T08:54:35;101631.0;;;22.0;63.21
64023;BME280;50264;52.088;5.296;2022-08-02T08:56:28;101631.0;;;22.09;64.41
64023;BME280;50264;52.088;5.296;2022-08-02T08:58:17;101627.0;;;22.17;62.61
64023;BME280;50264;52.088;5.296;2022-08-02T09:00:06;101630.0;;;22.28;64.25
64023;BME280;50264;52.088;5.296;2022-08-02T09:01:55;101632.0;;;22.34;64.69
64023;BME280;50264;52.088;5.296;2022-08-02T09:03:43;101635.0;;;22.47;63.24
64023;BME280;50264;52.088;5.296;2022-08-02T09:05:33;101632.0;;;22.54;64.61
64023;BME280;50264;52.088;5.296;2022-08-02T09:09:07;101632.0;;;22.72;63.16
64023;BME280;50264;52.088;5.296;2022-08-02T09:10:54;101631.0;;;22.8;62.11
64023;BME280;50264;52.088;5.296;2022-08-02T09:12:40;101637.0;;;22.89;62.93
64023;BME280;50264;52.088;5.296;2022-08-02T09:14:28;101639.0;;;22.83;61.27
64023;BME280;50264;52.088;5.296;2022-08-02T09:16:15;101648.0;;;22.97;61.29
64023;BME280;50264;52.088;5.296;2022-08-02T09:18:13;101648.0;;;23.09;63.42
64023;BME280;50264;52.088;5.296;2022-08-02T09:22:00;101646.0;;;23.18;60.13
64023;BME280;50264;52.088;5.296;2022-08-02T09:23:50;101645.0;;;23.37;62.18
64023;BME280;50264;52.088;5.296;2022-08-02T09:25:37;101642.0;;;23.42;61.66
64023;BME280;50264;52.088;5.296;2022-08-02T09:27:23;101644.0;;;23.59;60.61
64023;BME280;50264;52.088;5.296;2022-08-02T09:29:10;101643.0;;;23.83;61.06
64023;BME280;50264;52.088;5.296;2022-08-02T09:31:03;101646.0;;;23.88;61.23
64023;BME280;50264;52.088;5.296;2022-08-02T09:32:50;101637.0;;;23.96;59.29
64023;BME280;50264;52.088;5.296;2022-08-02T09:36:37;101644.0;;;24.21;61.2
64023;BME280;50264;52.088;5.296;2022-08-02T09:38:25;101638.0;;;24.31;59.88
64023;BME280;50264;52.088;5.296;2022-08-02T09:40:13;101651.0;;;24.52;60.81
64023;BME280;50264;52.088;5.296;2022-08-02T09:42:07;101648.0;;;24.66;59.6
64023;BME280;50264;52.088;5.296;2022-08-02T09:43:55;101653.0;;;24.62;57.68
64023;BME280;50264;52.088;5.296;2022-08-02T09:45:41;101649.0;;;24.84;59.26
64023;BME280;50264;52.088;5.296;2022-08-02T09:47:29;101644.0;;;24.81;58.55
64023;BME280;50264;52.088;5.296;2022-08-02T09:51:05;101647.0;;;24.87;59.46
64023;BME280;50264;52.088;5.296;2022-08-02T09:52:54;101651.0;;;24.78;58.41
64023;BME280;50264;52.088;5.296;2022-08-02T09:54:42;101648.0;;;24.64;58.47
64023;BME280;50264;52.088;5.296;2022-08-02T09:56:41;101642.0;;;24.62;59.2
64023;BME280;50264;52.088;5.296;2022-08-02T09:58:29;101638.0;;;24.72;59.15
64023;BME280;50264;52.088;5.296;2022-08-02T10:00:15;101645.0;;;24.74;60.56
64023;BME280;50264;52.088;5.296;2022-08-02T10:02:08;101647.0;;;25.0;60.76
64023;BME280;50264;52.088;5.296;2022-08-02T10:03:57;101653.0;;;24.87;58.28
64023;BME280;50264;52.088;5.296;2022-08-02T10:07:34;101652.0;;;24.82;57.29
64023;BME280;50264;52.088;5.296;2022-08-02T10:09:21;101651.0;;;24.91;57.67
64023;BME280;50264;52.088;5.296;2022-08-02T10:11:07;101651.0;;;24.76;57.68
64023;BME280;50264;52.088;5.296;2022-08-02T10:12:55;101649.0;;;24.96;58.57
64023;BME280;50264;52.088;5.296;2022-08-02T10:14:41;101645.0;;;24.74;56.69
64023;BME280;50264;52.088;5.296;2022-08-02T10:18:19;101648.0;;;24.85;58.51
64023;BME280;50264;52.088;5.296;2022-08-02T10:20:06;101657.0;;;24.94;57.3
64023;BME280;50264;52.088;5.296;2022-08-02T10:21:56;101652.0;;;25.04;56.77
64023;BME280;50264;52.088;5.296;2022-08-02T10:23:44;101650.0;;;25.18;57.67
64023;BME280;50264;52.088;5.296;2022-08-02T10:25:33;101652.0;;;25.39;58.71
64023;BME280;50264;52.088;5.296;2022-08-02T10:27:26;101648.0;;;25.38;56.43
64023;BME280;50264;52.088;5.296;2022-08-02T10:29:16;101647.0;;;25.41;54.27
64023;BME280;50264;52.088;5.296;2022-08-02T10:32:54;101646.0;;;25.27;55.56
64023;BME280;50264;52.088;5.296;2022-08-02T10:34:46;101649.0;;;25.49;55.73
64023;BME280;50264;52.088;5.296;2022-08-02T10:36:42;101644.0;;;25.59;55.67
64023;BME280;50264;52.088;5.296;2022-08-02T10:38:30;101642.0;;;25.72;55.41
64023;BME280;50264;52.088;5.296;2022-08-02T10:40:41;101634.0;;;25.94;54.04
64023;BME280;50264;52.088;5.296;2022-08-02T10:42:45;101623.0;;;26.16;52.91
64023;BME280;50264;52.088;5.296;2022-08-02T10:44:34;101623.0;;;26.29;53.01
64023;BME280;50264;52.088;5.296;2022-08-02T10:46:23;101624.0;;;26.28;52.64
64023;BME280;50264;52.088;5.296;2022-08-02T10:48:14;101625.0;;;26.36;52.86
64023;BME280;50264;52.088;5.296;2022-08-02T10:50:03;101622.0;;;26.2;53.06
64023;BME280;50264;52.088;5.296;2022-08-02T10:54:09;101619.0;;;26.04;51.71
64023;BME280;50264;52.088;5.296;2022-08-02T10:57:44;101617.0;;;25.99;50.79
64023;BME280;50264;52.088;5.296;2022-08-02T10:59:32;101613.0;;;26.2;50.67
64023;BME280;50264;52.088;5.296;2022-08-02T11:01:28;101617.0;;;26.29;51.86
64023;BME280;50264;52.088;5.296;2022-08-02T11:03:48;101615.0;;;26.47;49.86
64023;BME280;50264;52.088;5.296;2022-08-02T11:05:34;101613.0;;;26.61;49.83
64023;BME280;50264;52.088;5.296;2022-08-02T11:07:31;101610.0;;;26.71;48.79
64023;BME280;50264;52.088;5.296;2022-08-02T11:09:28;101614.0;;;26.72;46.58